KSQL

San Carlos Airport

San Carlos, California, USA
METAR KSQL 210358Z 28006KT 10SM SKC 10/06 A3024
Observed Flight Rules
Jan-21 @ 03:58 UTC (54 minutes ago) Visual Flight Rules
Wind Visibility Clouds
280° at 6 knots 10 miles
  • Clear skies
Temperatures Readings
Current 10°C / 50°F
Dewpoint 6°C / 43°F
Humidity 76%
Altimeter 30.24" Hg
Pressure 1024 hPa
Elevation 1
METAR KSQL 210358Z 28006KT 10SM SKC 10/06 A3024
Observed Flight Rules
Jan-21 @ 03:58 UTC
(54 minutes ago)
VFR
Wind Visibility
280° at 6 knots 10 miles
Clouds
  • Clear skies
Temperature Dewpoint
10°C / 50°F 6°C / 43°F
Humidity Altimeter Pressure
76% 30.24" Hg 1024 hPa